McCloud, California
Current Conditions -  °F | °C
As of 1:56 PM on Tuesday 25 Nov 2014 (Local Time) from KMHS Reporting Station
Clear Clear  
Wind Chill: 61°   Ceiling: Unl
Heat Index: 61°   Visibility: 10mi
Dew Point: 41°   Wind: 0mph
Humidity: 48%   Direction: NA
Pressure: 30.42"   Gusts: NA
Location:  41.26°N, 122.14°W
Report Text: KMHS 252156Z AUTO 00000KT 10SM CLR 16/05 A3042 RMK AO2 SLP320 T01610050
Loading
Personal Weather Stations






























Interactive Weather Map New forecast layout! Learn more

10-Day Weather Forecast

Advertisements
Track Severe Weather on mobile